sensor_id;sensor_type;location;lat;lon;timestamp;P1;durP1;ratioP1;P2;durP2;ratioP2
10945;SDS011;5525;42.648;23.368;2023-12-20T00:01:10;19.80;;;12.82;;
10945;SDS011;5525;42.648;23.368;2023-12-20T00:03:39;19.50;;;13.25;;
10945;SDS011;5525;42.648;23.368;2023-12-20T00:06:05;18.20;;;12.15;;
10945;SDS011;5525;42.648;23.368;2023-12-20T00:08:32;21.13;;;13.25;;
10945;SDS011;5525;42.648;23.368;2023-12-20T00:10:59;22.80;;;13.23;;
10945;SDS011;5525;42.648;23.368;2023-12-20T00:13:26;19.63;;;13.00;;
10945;SDS011;5525;42.648;23.368;2023-12-20T00:15:53;19.45;;;12.80;;
10945;SDS011;5525;42.648;23.368;2023-12-20T00:18:19;19.90;;;14.32;;
10945;SDS011;5525;42.648;23.368;2023-12-20T00:20:47;23.35;;;15.10;;
10945;SDS011;5525;42.648;23.368;2023-12-20T00:23:14;28.15;;;16.80;;
10945;SDS011;5525;42.648;23.368;2023-12-20T00:25:41;23.80;;;14.98;;
10945;SDS011;5525;42.648;23.368;2023-12-20T00:28:08;21.95;;;14.55;;
10945;SDS011;5525;42.648;23.368;2023-12-20T00:30:35;27.48;;;17.13;;
10945;SDS011;5525;42.648;23.368;2023-12-20T00:33:02;21.08;;;14.32;;
10945;SDS011;5525;42.648;23.368;2023-12-20T00:35:29;22.77;;;14.88;;
10945;SDS011;5525;42.648;23.368;2023-12-20T00:37:57;23.98;;;15.68;;
10945;SDS011;5525;42.648;23.368;2023-12-20T00:40:24;26.50;;;16.55;;
10945;SDS011;5525;42.648;23.368;2023-12-20T00:42:51;27.08;;;15.90;;
10945;SDS011;5525;42.648;23.368;2023-12-20T00:45:18;25.48;;;15.32;;
10945;SDS011;5525;42.648;23.368;2023-12-20T00:47:45;23.90;;;14.10;;
10945;SDS011;5525;42.648;23.368;2023-12-20T00:50:12;28.00;;;14.32;;
10945;SDS011;5525;42.648;23.368;2023-12-20T00:52:38;24.17;;;15.80;;
10945;SDS011;5525;42.648;23.368;2023-12-20T00:55:07;25.73;;;15.63;;
10945;SDS011;5525;42.648;23.368;2023-12-20T00:57:34;26.35;;;16.45;;
10945;SDS011;5525;42.648;23.368;2023-12-20T01:00:01;28.98;;;18.23;;
10945;SDS011;5525;42.648;23.368;2023-12-20T01:02:28;29.45;;;18.45;;
10945;SDS011;5525;42.648;23.368;2023-12-20T01:04:55;27.85;;;16.92;;
10945;SDS011;5525;42.648;23.368;2023-12-20T01:07:22;25.27;;;15.63;;
10945;SDS011;5525;42.648;23.368;2023-12-20T01:09:49;24.85;;;16.70;;
10945;SDS011;5525;42.648;23.368;2023-12-20T01:12:17;28.08;;;17.27;;
10945;SDS011;5525;42.648;23.368;2023-12-20T01:14:45;34.55;;;20.20;;
10945;SDS011;5525;42.648;23.368;2023-12-20T01:17:12;28.95;;;17.52;;
10945;SDS011;5525;42.648;23.368;2023-12-20T01:19:39;25.98;;;16.02;;
10945;SDS011;5525;42.648;23.368;2023-12-20T01:22:06;27.30;;;16.70;;
10945;SDS011;5525;42.648;23.368;2023-12-20T01:24:32;26.60;;;16.90;;
10945;SDS011;5525;42.648;23.368;2023-12-20T01:26:59;14.85;;;9.80;;
10945;SDS011;5525;42.648;23.368;2023-12-20T01:29:27;27.70;;;16.42;;
10945;SDS011;5525;42.648;23.368;2023-12-20T01:31:54;31.02;;;18.15;;
10945;SDS011;5525;42.648;23.368;2023-12-20T01:34:21;19.33;;;12.10;;
10945;SDS011;5525;42.648;23.368;2023-12-20T01:36:48;10.70;;;7.07;;
10945;SDS011;5525;42.648;23.368;2023-12-20T01:39:14;10.30;;;6.13;;
10945;SDS011;5525;42.648;23.368;2023-12-20T01:41:41;9.85;;;6.13;;
10945;SDS011;5525;42.648;23.368;2023-12-20T01:44:08;12.75;;;6.25;;
10945;SDS011;5525;42.648;23.368;2023-12-20T01:46:36;10.35;;;6.40;;
10945;SDS011;5525;42.648;23.368;2023-12-20T01:49:03;15.30;;;9.23;;
10945;SDS011;5525;42.648;23.368;2023-12-20T01:51:31;12.48;;;8.32;;
10945;SDS011;5525;42.648;23.368;2023-12-20T01:53:59;17.05;;;10.02;;
10945;SDS011;5525;42.648;23.368;2023-12-20T01:56:26;15.23;;;9.80;;
10945;SDS011;5525;42.648;23.368;2023-12-20T01:58:55;15.55;;;9.77;;
10945;SDS011;5525;42.648;23.368;2023-12-20T02:01:23;15.30;;;9.38;;
10945;SDS011;5525;42.648;23.368;2023-12-20T02:03:52;16.15;;;9.95;;
10945;SDS011;5525;42.648;23.368;2023-12-20T02:06:18;15.63;;;9.68;;
10945;SDS011;5525;42.648;23.368;2023-12-20T02:08:49;16.05;;;8.98;;
10945;SDS011;5525;42.648;23.368;2023-12-20T02:11:16;13.38;;;8.38;;
10945;SDS011;5525;42.648;23.368;2023-12-20T02:13:43;13.05;;;8.25;;
10945;SDS011;5525;42.648;23.368;2023-12-20T02:16:10;11.75;;;7.85;;
10945;SDS011;5525;42.648;23.368;2023-12-20T02:18:37;16.95;;;9.75;;
10945;SDS011;5525;42.648;23.368;2023-12-20T02:21:05;17.60;;;10.88;;
10945;SDS011;5525;42.648;23.368;2023-12-20T02:23:34;16.58;;;10.93;;
10945;SDS011;5525;42.648;23.368;2023-12-20T02:26:01;19.58;;;10.68;;
10945;SDS011;5525;42.648;23.368;2023-12-20T02:28:28;13.85;;;9.68;;
10945;SDS011;5525;42.648;23.368;2023-12-20T02:30:56;20.20;;;10.82;;
10945;SDS011;5525;42.648;23.368;2023-12-20T02:33:23;17.27;;;10.55;;
10945;SDS011;5525;42.648;23.368;2023-12-20T02:35:50;15.90;;;9.57;;
10945;SDS011;5525;42.648;23.368;2023-12-20T02:38:17;16.17;;;8.20;;
10945;SDS011;5525;42.648;23.368;2023-12-20T02:40:46;18.40;;;10.43;;
10945;SDS011;5525;42.648;23.368;2023-12-20T02:43:12;17.80;;;10.20;;
10945;SDS011;5525;42.648;23.368;2023-12-20T02:45:39;15.15;;;9.48;;
10945;SDS011;5525;42.648;23.368;2023-12-20T02:48:06;19.15;;;11.20;;
10945;SDS011;5525;42.648;23.368;2023-12-20T02:50:33;18.42;;;11.10;;
10945;SDS011;5525;42.648;23.368;2023-12-20T02:53:00;21.05;;;13.15;;
10945;SDS011;5525;42.648;23.368;2023-12-20T02:55:27;28.40;;;17.42;;
10945;SDS011;5525;42.648;23.368;2023-12-20T02:57:55;24.13;;;16.23;;
10945;SDS011;5525;42.648;23.368;2023-12-20T03:00:22;31.48;;;20.33;;
10945;SDS011;5525;42.648;23.368;2023-12-20T03:02:49;62.13;;;37.40;;
10945;SDS011;5525;42.648;23.368;2023-12-20T03:05:15;81.88;;;48.30;;
10945;SDS011;5525;42.648;23.368;2023-12-20T03:07:42;87.50;;;50.55;;
10945;SDS011;5525;42.648;23.368;2023-12-20T03:10:09;100.18;;;55.13;;
10945;SDS011;5525;42.648;23.368;2023-12-20T03:12:36;82.43;;;47.83;;
10945;SDS011;5525;42.648;23.368;2023-12-20T03:15:04;87.03;;;50.28;;
10945;SDS011;5525;42.648;23.368;2023-12-20T03:17:31;81.10;;;50.60;;
10945;SDS011;5525;42.648;23.368;2023-12-20T03:19:58;98.80;;;55.78;;
10945;SDS011;5525;42.648;23.368;2023-12-20T03:22:25;94.20;;;53.92;;
10945;SDS011;5525;42.648;23.368;2023-12-20T03:24:52;86.50;;;49.33;;
10945;SDS011;5525;42.648;23.368;2023-12-20T03:27:18;81.97;;;46.08;;
10945;SDS011;5525;42.648;23.368;2023-12-20T03:29:45;73.65;;;43.38;;
10945;SDS011;5525;42.648;23.368;2023-12-20T03:32:14;78.15;;;45.75;;
10945;SDS011;5525;42.648;23.368;2023-12-20T03:34:40;78.10;;;46.38;;
10945;SDS011;5525;42.648;23.368;2023-12-20T03:37:07;74.53;;;40.45;;
10945;SDS011;5525;42.648;23.368;2023-12-20T03:39:34;53.95;;;34.28;;
10945;SDS011;5525;42.648;23.368;2023-12-20T03:42:01;36.92;;;23.27;;
10945;SDS011;5525;42.648;23.368;2023-12-20T03:44:28;43.05;;;25.70;;
10945;SDS011;5525;42.648;23.368;2023-12-20T03:46:54;37.13;;;22.73;;
10945;SDS011;5525;42.648;23.368;2023-12-20T03:49:23;40.33;;;24.58;;
10945;SDS011;5525;42.648;23.368;2023-12-20T03:51:49;35.92;;;23.08;;
10945;SDS011;5525;42.648;23.368;2023-12-20T03:54:16;47.50;;;29.20;;
10945;SDS011;5525;42.648;23.368;2023-12-20T03:56:43;36.33;;;23.90;;
10945;SDS011;5525;42.648;23.368;2023-12-20T03:59:10;42.28;;;25.63;;
10945;SDS011;5525;42.648;23.368;2023-12-20T04:01:36;50.70;;;32.65;;
10945;SDS011;5525;42.648;23.368;2023-12-20T04:04:03;39.90;;;25.40;;
10945;SDS011;5525;42.648;23.368;2023-12-20T04:06:31;28.25;;;17.75;;
10945;SDS011;5525;42.648;23.368;2023-12-20T04:08:58;29.40;;;18.52;;
10945;SDS011;5525;42.648;23.368;2023-12-20T04:11:25;30.58;;;18.15;;
10945;SDS011;5525;42.648;23.368;2023-12-20T04:13:52;23.90;;;14.48;;
10945;SDS011;5525;42.648;23.368;2023-12-20T04:16:18;26.88;;;16.42;;
10945;SDS011;5525;42.648;23.368;2023-12-20T04:18:45;26.40;;;16.05;;
10945;SDS011;5525;42.648;23.368;2023-12-20T04:21:12;32.53;;;19.88;;
10945;SDS011;5525;42.648;23.368;2023-12-20T04:23:40;36.53;;;23.35;;
10945;SDS011;5525;42.648;23.368;2023-12-20T04:26:07;36.08;;;23.35;;
10945;SDS011;5525;42.648;23.368;2023-12-20T04:28:34;29.52;;;17.50;;
10945;SDS011;5525;42.648;23.368;2023-12-20T04:31:00;33.13;;;21.38;;
10945;SDS011;5525;42.648;23.368;2023-12-20T04:33:27;31.30;;;18.25;;
10945;SDS011;5525;42.648;23.368;2023-12-20T04:35:54;22.25;;;14.10;;
10945;SDS011;5525;42.648;23.368;2023-12-20T04:38:22;26.10;;;15.13;;
10945;SDS011;5525;42.648;23.368;2023-12-20T04:40:51;29.70;;;17.92;;
10945;SDS011;5525;42.648;23.368;2023-12-20T04:43:17;31.27;;;19.80;;
10945;SDS011;5525;42.648;23.368;2023-12-20T04:45:44;28.60;;;17.60;;
10945;SDS011;5525;42.648;23.368;2023-12-20T04:48:11;32.83;;;21.33;;
10945;SDS011;5525;42.648;23.368;2023-12-20T04:50:38;30.75;;;19.98;;
10945;SDS011;5525;42.648;23.368;2023-12-20T04:53:05;32.33;;;22.98;;
10945;SDS011;5525;42.648;23.368;2023-12-20T04:55:32;34.25;;;20.73;;
10945;SDS011;5525;42.648;23.368;2023-12-20T04:58:00;32.63;;;20.63;;
10945;SDS011;5525;42.648;23.368;2023-12-20T05:00:27;33.53;;;21.27;;
10945;SDS011;5525;42.648;23.368;2023-12-20T05:02:55;36.58;;;22.08;;
10945;SDS011;5525;42.648;23.368;2023-12-20T05:05:22;37.28;;;22.38;;
10945;SDS011;5525;42.648;23.368;2023-12-20T05:07:48;35.53;;;22.25;;
10945;SDS011;5525;42.648;23.368;2023-12-20T05:10:15;37.97;;;23.80;;
10945;SDS011;5525;42.648;23.368;2023-12-20T05:12:42;54.40;;;31.88;;
10945;SDS011;5525;42.648;23.368;2023-12-20T05:15:10;69.43;;;40.25;;
10945;SDS011;5525;42.648;23.368;2023-12-20T05:17:37;61.13;;;37.25;;
10945;SDS011;5525;42.648;23.368;2023-12-20T05:20:04;98.93;;;48.17;;
10945;SDS011;5525;42.648;23.368;2023-12-20T05:22:32;94.30;;;49.97;;
10945;SDS011;5525;42.648;23.368;2023-12-20T05:24:59;100.93;;;50.50;;
10945;SDS011;5525;42.648;23.368;2023-12-20T05:27:25;84.97;;;48.33;;
10945;SDS011;5525;42.648;23.368;2023-12-20T05:29:52;131.57;;;54.00;;
10945;SDS011;5525;42.648;23.368;2023-12-20T05:32:24;103.20;;;50.08;;
10945;SDS011;5525;42.648;23.368;2023-12-20T05:34:50;94.45;;;48.88;;
10945;SDS011;5525;42.648;23.368;2023-12-20T05:37:17;105.18;;;51.38;;
10945;SDS011;5525;42.648;23.368;2023-12-20T05:39:44;109.00;;;52.22;;
10945;SDS011;5525;42.648;23.368;2023-12-20T05:42:11;143.75;;;55.65;;
10945;SDS011;5525;42.648;23.368;2023-12-20T05:44:38;143.82;;;53.92;;
10945;SDS011;5525;42.648;23.368;2023-12-20T05:47:05;150.23;;;52.42;;
10945;SDS011;5525;42.648;23.368;2023-12-20T05:49:33;129.45;;;53.58;;
10945;SDS011;5525;42.648;23.368;2023-12-20T05:52:00;106.10;;;50.30;;
10945;SDS011;5525;42.648;23.368;2023-12-20T05:54:27;122.15;;;57.72;;
10945;SDS011;5525;42.648;23.368;2023-12-20T05:56:53;118.13;;;54.53;;
10945;SDS011;5525;42.648;23.368;2023-12-20T05:59:20;125.10;;;55.40;;
10945;SDS011;5525;42.648;23.368;2023-12-20T06:01:47;120.22;;;54.50;;
10945;SDS011;5525;42.648;23.368;2023-12-20T06:04:14;155.68;;;57.38;;
10945;SDS011;5525;42.648;23.368;2023-12-20T06:06:42;116.57;;;51.40;;
10945;SDS011;5525;42.648;23.368;2023-12-20T06:09:10;103.18;;;45.38;;
10945;SDS011;5525;42.648;23.368;2023-12-20T06:11:37;108.47;;;49.72;;
10945;SDS011;5525;42.648;23.368;2023-12-20T06:14:04;83.25;;;37.92;;
10945;SDS011;5525;42.648;23.368;2023-12-20T06:16:31;84.38;;;38.17;;
10945;SDS011;5525;42.648;23.368;2023-12-20T06:18:57;105.03;;;46.47;;
10945;SDS011;5525;42.648;23.368;2023-12-20T06:21:24;106.50;;;46.88;;
10945;SDS011;5525;42.648;23.368;2023-12-20T06:23:52;136.57;;;54.10;;
10945;SDS011;5525;42.648;23.368;2023-12-20T06:26:20;95.38;;;47.20;;
10945;SDS011;5525;42.648;23.368;2023-12-20T06:28:46;95.03;;;47.38;;
10945;SDS011;5525;42.648;23.368;2023-12-20T06:31:13;109.03;;;48.92;;
10945;SDS011;5525;42.648;23.368;2023-12-20T06:33:40;113.72;;;50.97;;
10945;SDS011;5525;42.648;23.368;2023-12-20T06:36:07;116.25;;;50.42;;
10945;SDS011;5525;42.648;23.368;2023-12-20T06:38:34;117.57;;;51.47;;
10945;SDS011;5525;42.648;23.368;2023-12-20T06:41:01;98.72;;;44.53;;
10945;SDS011;5525;42.648;23.368;2023-12-20T06:43:28;89.70;;;44.40;;
10945;SDS011;5525;42.648;23.368;2023-12-20T06:45:56;90.00;;;40.83;;
10945;SDS011;5525;42.648;23.368;2023-12-20T06:48:22;88.38;;;42.60;;
10945;SDS011;5525;42.648;23.368;2023-12-20T06:50:49;116.78;;;47.05;;
10945;SDS011;5525;42.648;23.368;2023-12-20T06:53:16;120.32;;;47.30;;
10945;SDS011;5525;42.648;23.368;2023-12-20T06:55:43;94.88;;;43.58;;
10945;SDS011;5525;42.648;23.368;2023-12-20T06:58:11;102.20;;;45.28;;
10945;SDS011;5525;42.648;23.368;2023-12-20T07:00:37;86.68;;;42.22;;
10945;SDS011;5525;42.648;23.368;2023-12-20T07:03:04;89.50;;;42.55;;
10945;SDS011;5525;42.648;23.368;2023-12-20T07:05:31;85.18;;;43.08;;
10945;SDS011;5525;42.648;23.368;2023-12-20T07:07:58;88.40;;;48.20;;
10945;SDS011;5525;42.648;23.368;2023-12-20T07:10:25;96.82;;;50.50;;
10945;SDS011;5525;42.648;23.368;2023-12-20T07:12:51;97.82;;;48.33;;
10945;SDS011;5525;42.648;23.368;2023-12-20T07:15:21;74.75;;;41.20;;
10945;SDS011;5525;42.648;23.368;2023-12-20T07:17:48;70.82;;;38.05;;
10945;SDS011;5525;42.648;23.368;2023-12-20T07:20:15;75.05;;;40.33;;
10945;SDS011;5525;42.648;23.368;2023-12-20T07:22:42;67.00;;;36.70;;
10945;SDS011;5525;42.648;23.368;2023-12-20T07:25:09;66.13;;;39.15;;
10945;SDS011;5525;42.648;23.368;2023-12-20T07:27:35;69.05;;;39.35;;
10945;SDS011;5525;42.648;23.368;2023-12-20T07:30:03;67.63;;;40.50;;
10945;SDS011;5525;42.648;23.368;2023-12-20T07:32:31;66.75;;;38.63;;
10945;SDS011;5525;42.648;23.368;2023-12-20T07:34:58;68.10;;;38.17;;
10945;SDS011;5525;42.648;23.368;2023-12-20T07:37:25;71.40;;;37.92;;
10945;SDS011;5525;42.648;23.368;2023-12-20T07:39:52;75.50;;;40.17;;
10945;SDS011;5525;42.648;23.368;2023-12-20T07:42:18;69.10;;;37.85;;
10945;SDS011;5525;42.648;23.368;2023-12-20T07:44:53;70.53;;;39.78;;
10945;SDS011;5525;42.648;23.368;2023-12-20T07:47:36;78.03;;;40.25;;
10945;SDS011;5525;42.648;23.368;2023-12-20T07:50:04;74.95;;;41.78;;
10945;SDS011;5525;42.648;23.368;2023-12-20T07:52:35;70.72;;;41.42;;
10945;SDS011;5525;42.648;23.368;2023-12-20T07:55:02;69.13;;;37.08;;
10945;SDS011;5525;42.648;23.368;2023-12-20T07:57:29;65.95;;;37.22;;
10945;SDS011;5525;42.648;23.368;2023-12-20T07:59:56;68.88;;;38.10;;
10945;SDS011;5525;42.648;23.368;2023-12-20T08:02:22;56.15;;;31.30;;
10945;SDS011;5525;42.648;23.368;2023-12-20T08:04:51;58.67;;;33.65;;
10945;SDS011;5525;42.648;23.368;2023-12-20T08:07:17;58.63;;;32.58;;
10945;SDS011;5525;42.648;23.368;2023-12-20T08:09:44;58.42;;;32.22;;
10945;SDS011;5525;42.648;23.368;2023-12-20T08:12:11;58.58;;;32.40;;
10945;SDS011;5525;42.648;23.368;2023-12-20T08:14:38;54.45;;;30.17;;
10945;SDS011;5525;42.648;23.368;2023-12-20T08:17:05;54.45;;;25.15;;
10945;SDS011;5525;42.648;23.368;2023-12-20T08:19:32;42.65;;;21.67;;
10945;SDS011;5525;42.648;23.368;2023-12-20T08:22:00;55.40;;;29.65;;
10945;SDS011;5525;42.648;23.368;2023-12-20T08:24:27;50.50;;;29.92;;
10945;SDS011;5525;42.648;23.368;2023-12-20T08:26:54;45.50;;;26.33;;
10945;SDS011;5525;42.648;23.368;2023-12-20T08:29:21;37.92;;;21.15;;
10945;SDS011;5525;42.648;23.368;2023-12-20T08:31:51;43.88;;;22.15;;
10945;SDS011;5525;42.648;23.368;2023-12-20T08:34:18;45.50;;;23.30;;
10945;SDS011;5525;42.648;23.368;2023-12-20T08:36:45;50.75;;;26.23;;
10945;SDS011;5525;42.648;23.368;2023-12-20T08:39:13;49.88;;;25.15;;
10945;SDS011;5525;42.648;23.368;2023-12-20T08:41:40;43.55;;;24.33;;
10945;SDS011;5525;42.648;23.368;2023-12-20T08:44:07;47.97;;;23.75;;
10945;SDS011;5525;42.648;23.368;2023-12-20T08:46:34;52.28;;;25.38;;
10945;SDS011;5525;42.648;23.368;2023-12-20T08:49:01;49.80;;;25.08;;
10945;SDS011;5525;42.648;23.368;2023-12-20T08:51:29;64.18;;;31.30;;
10945;SDS011;5525;42.648;23.368;2023-12-20T08:53:55;48.33;;;26.60;;
10945;SDS011;5525;42.648;23.368;2023-12-20T08:56:25;71.63;;;33.47;;
10945;SDS011;5525;42.648;23.368;2023-12-20T08:58:51;59.17;;;33.15;;
10945;SDS011;5525;42.648;23.368;2023-12-20T09:01:18;71.93;;;34.95;;
10945;SDS011;5525;42.648;23.368;2023-12-20T09:03:45;69.65;;;34.13;;
10945;SDS011;5525;42.648;23.368;2023-12-20T09:06:12;73.28;;;36.75;;
10945;SDS011;5525;42.648;23.368;2023-12-20T09:08:38;62.35;;;33.63;;
10945;SDS011;5525;42.648;23.368;2023-12-20T09:11:06;61.97;;;32.60;;
10945;SDS011;5525;42.648;23.368;2023-12-20T09:13:34;61.05;;;30.83;;
10945;SDS011;5525;42.648;23.368;2023-12-20T09:16:01;64.15;;;32.47;;
10945;SDS011;5525;42.648;23.368;2023-12-20T09:18:27;67.22;;;34.50;;
10945;SDS011;5525;42.648;23.368;2023-12-20T09:20:54;73.03;;;36.33;;
10945;SDS011;5525;42.648;23.368;2023-12-20T09:23:21;74.22;;;36.03;;
10945;SDS011;5525;42.648;23.368;2023-12-20T09:25:48;75.30;;;35.88;;
10945;SDS011;5525;42.648;23.368;2023-12-20T09:28:14;74.20;;;33.85;;
10945;SDS011;5525;42.648;23.368;2023-12-20T09:30:43;67.93;;;34.63;;
10945;SDS011;5525;42.648;23.368;2023-12-20T09:33:11;59.70;;;29.98;;
10945;SDS011;5525;42.648;23.368;2023-12-20T09:35:38;58.53;;;27.67;;
10945;SDS011;5525;42.648;23.368;2023-12-20T09:38:04;56.45;;;28.77;;
10945;SDS011;5525;42.648;23.368;2023-12-20T09:40:32;51.28;;;26.88;;
10945;SDS011;5525;42.648;23.368;2023-12-20T09:43:02;55.05;;;27.73;;
10945;SDS011;5525;42.648;23.368;2023-12-20T09:45:30;53.25;;;26.95;;
10945;SDS011;5525;42.648;23.368;2023-12-20T09:47:59;53.00;;;26.95;;
10945;SDS011;5525;42.648;23.368;2023-12-20T09:50:25;51.15;;;27.48;;
10945;SDS011;5525;42.648;23.368;2023-12-20T09:52:53;56.33;;;28.65;;
10945;SDS011;5525;42.648;23.368;2023-12-20T09:55:21;53.10;;;28.10;;
10945;SDS011;5525;42.648;23.368;2023-12-20T09:57:48;49.33;;;27.27;;
10945;SDS011;5525;42.648;23.368;2023-12-20T10:00:16;50.25;;;27.50;;
10945;SDS011;5525;42.648;23.368;2023-12-20T10:02:45;51.97;;;28.95;;
10945;SDS011;5525;42.648;23.368;2023-12-20T10:05:18;55.13;;;28.85;;
10945;SDS011;5525;42.648;23.368;2023-12-20T10:07:52;56.95;;;30.05;;
10945;SDS011;5525;42.648;23.368;2023-12-20T10:10:19;52.15;;;29.27;;
10945;SDS011;5525;42.648;23.368;2023-12-20T10:13:00;50.10;;;28.85;;
10945;SDS011;5525;42.648;23.368;2023-12-20T10:15:28;54.08;;;29.95;;
10945;SDS011;5525;42.648;23.368;2023-12-20T10:17:55;58.95;;;32.42;;
10945;SDS011;5525;42.648;23.368;2023-12-20T10:20:24;65.10;;;33.85;;
10945;SDS011;5525;42.648;23.368;2023-12-20T10:22:51;64.85;;;33.45;;
10945;SDS011;5525;42.648;23.368;2023-12-20T10:25:19;64.57;;;33.95;;
10945;SDS011;5525;42.648;23.368;2023-12-20T10:27:47;62.80;;;33.55;;
10945;SDS011;5525;42.648;23.368;2023-12-20T10:30:13;64.10;;;32.10;;
10945;SDS011;5525;42.648;23.368;2023-12-20T10:32:40;63.50;;;33.05;;
10945;SDS011;5525;42.648;23.368;2023-12-20T10:35:08;58.53;;;32.58;;
10945;SDS011;5525;42.648;23.368;2023-12-20T10:37:37;65.55;;;33.20;;
10945;SDS011;5525;42.648;23.368;2023-12-20T10:40:04;60.33;;;32.42;;
10945;SDS011;5525;42.648;23.368;2023-12-20T10:42:32;60.33;;;33.45;;
10945;SDS011;5525;42.648;23.368;2023-12-20T10:44:59;64.30;;;34.50;;
10945;SDS011;5525;42.648;23.368;2023-12-20T10:47:26;59.80;;;31.00;;
10945;SDS011;5525;42.648;23.368;2023-12-20T10:49:57;62.05;;;33.40;;
10945;SDS011;5525;42.648;23.368;2023-12-20T10:52:27;58.72;;;32.22;;
10945;SDS011;5525;42.648;23.368;2023-12-20T10:54:56;56.58;;;32.30;;
10945;SDS011;5525;42.648;23.368;2023-12-20T10:57:23;56.80;;;31.83;;
10945;SDS011;5525;42.648;23.368;2023-12-20T10:59:54;54.88;;;31.48;;
10945;SDS011;5525;42.648;23.368;2023-12-20T11:02:22;53.53;;;31.50;;
10945;SDS011;5525;42.648;23.368;2023-12-20T11:04:51;54.40;;;30.75;;
10945;SDS011;5525;42.648;23.368;2023-12-20T11:07:21;52.72;;;29.65;;
10945;SDS011;5525;42.648;23.368;2023-12-20T11:09:58;61.40;;;30.23;;
10945;SDS011;5525;42.648;23.368;2023-12-20T11:12:32;51.22;;;29.42;;
10945;SDS011;5525;42.648;23.368;2023-12-20T11:15:04;52.10;;;29.92;;
10945;SDS011;5525;42.648;23.368;2023-12-20T11:17:33;55.22;;;30.50;;
10945;SDS011;5525;42.648;23.368;2023-12-20T11:20:09;59.40;;;32.70;;
10945;SDS011;5525;42.648;23.368;2023-12-20T11:22:37;60.00;;;32.70;;
10945;SDS011;5525;42.648;23.368;2023-12-20T11:25:08;56.35;;;33.03;;
10945;SDS011;5525;42.648;23.368;2023-12-20T11:27:36;64.43;;;34.75;;
10945;SDS011;5525;42.648;23.368;2023-12-20T11:30:07;65.88;;;34.58;;
10945;SDS011;5525;42.648;23.368;2023-12-20T11:32:35;69.07;;;34.58;;
10945;SDS011;5525;42.648;23.368;2023-12-20T11:35:16;64.47;;;33.75;;
10945;SDS011;5525;42.648;23.368;2023-12-20T11:37:45;65.38;;;34.47;;
10945;SDS011;5525;42.648;23.368;2023-12-20T11:40:14;62.80;;;34.35;;
10945;SDS011;5525;42.648;23.368;2023-12-20T11:42:44;58.38;;;32.90;;
10945;SDS011;5525;42.648;23.368;2023-12-20T11:45:13;64.28;;;34.55;;
10945;SDS011;5525;42.648;23.368;2023-12-20T11:47:41;63.45;;;32.35;;
10945;SDS011;5525;42.648;23.368;2023-12-20T11:50:09;56.58;;;32.03;;
10945;SDS011;5525;42.648;23.368;2023-12-20T11:52:36;57.55;;;33.15;;
10945;SDS011;5525;42.648;23.368;2023-12-20T11:55:03;51.78;;;31.20;;
10945;SDS011;5525;42.648;23.368;2023-12-20T11:57:31;64.68;;;37.05;;
10945;SDS011;5525;42.648;23.368;2023-12-20T11:59:58;59.25;;;35.15;;
10945;SDS011;5525;42.648;23.368;2023-12-20T12:02:25;67.15;;;36.28;;
10945;SDS011;5525;42.648;23.368;2023-12-20T12:04:52;49.15;;;30.23;;
10945;SDS011;5525;42.648;23.368;2023-12-20T12:07:20;47.15;;;28.30;;
10945;SDS011;5525;42.648;23.368;2023-12-20T12:09:47;49.88;;;28.73;;
10945;SDS011;5525;42.648;23.368;2023-12-20T12:12:14;49.75;;;29.20;;
10945;SDS011;5525;42.648;23.368;2023-12-20T12:14:43;52.90;;;29.38;;
10945;SDS011;5525;42.648;23.368;2023-12-20T12:17:10;56.75;;;31.13;;
10945;SDS011;5525;42.648;23.368;2023-12-20T12:19:38;53.00;;;30.58;;
10945;SDS011;5525;42.648;23.368;2023-12-20T12:22:05;51.42;;;31.38;;
10945;SDS011;5525;42.648;23.368;2023-12-20T12:24:35;55.08;;;30.92;;
10945;SDS011;5525;42.648;23.368;2023-12-20T12:27:02;53.33;;;31.13;;
10945;SDS011;5525;42.648;23.368;2023-12-20T12:29:29;56.30;;;31.13;;
10945;SDS011;5525;42.648;23.368;2023-12-20T12:31:57;58.05;;;32.35;;
10945;SDS011;5525;42.648;23.368;2023-12-20T12:34:24;52.53;;;32.13;;
10945;SDS011;5525;42.648;23.368;2023-12-20T12:36:53;55.90;;;31.75;;
10945;SDS011;5525;42.648;23.368;2023-12-20T12:39:20;55.63;;;32.42;;
10945;SDS011;5525;42.648;23.368;2023-12-20T12:41:47;53.33;;;31.58;;
10945;SDS011;5525;42.648;23.368;2023-12-20T12:44:14;52.15;;;30.52;;
10945;SDS011;5525;42.648;23.368;2023-12-20T12:46:41;44.35;;;28.08;;
10945;SDS011;5525;42.648;23.368;2023-12-20T12:49:09;45.38;;;29.85;;
10945;SDS011;5525;42.648;23.368;2023-12-20T12:51:36;45.17;;;28.38;;
10945;SDS011;5525;42.648;23.368;2023-12-20T12:54:03;45.10;;;29.40;;
10945;SDS011;5525;42.648;23.368;2023-12-20T12:56:30;46.13;;;28.75;;
10945;SDS011;5525;42.648;23.368;2023-12-20T12:58:57;43.75;;;28.40;;
10945;SDS011;5525;42.648;23.368;2023-12-20T13:01:23;45.00;;;28.13;;
10945;SDS011;5525;42.648;23.368;2023-12-20T13:03:50;45.10;;;29.13;;
10945;SDS011;5525;42.648;23.368;2023-12-20T13:06:18;47.97;;;29.27;;
10945;SDS011;5525;42.648;23.368;2023-12-20T13:08:45;45.00;;;28.83;;
10945;SDS011;5525;42.648;23.368;2023-12-20T13:11:12;53.33;;;31.48;;
10945;SDS011;5525;42.648;23.368;2023-12-20T13:13:39;54.17;;;29.80;;
10945;SDS011;5525;42.648;23.368;2023-12-20T13:16:06;45.65;;;28.38;;
10945;SDS011;5525;42.648;23.368;2023-12-20T13:18:33;54.85;;;30.67;;
10945;SDS011;5525;42.648;23.368;2023-12-20T13:20:59;50.28;;;29.08;;
10945;SDS011;5525;42.648;23.368;2023-12-20T13:23:28;54.10;;;30.17;;
10945;SDS011;5525;42.648;23.368;2023-12-20T13:25:55;53.45;;;29.15;;
10945;SDS011;5525;42.648;23.368;2023-12-20T13:28:22;53.13;;;29.73;;
10945;SDS011;5525;42.648;23.368;2023-12-20T13:30:48;54.13;;;30.88;;
10945;SDS011;5525;42.648;23.368;2023-12-20T13:33:15;54.20;;;29.80;;
10945;SDS011;5525;42.648;23.368;2023-12-20T13:35:42;53.15;;;28.90;;
10945;SDS011;5525;42.648;23.368;2023-12-20T13:38:09;58.20;;;29.65;;
10945;SDS011;5525;42.648;23.368;2023-12-20T13:40:37;53.47;;;29.35;;
10945;SDS011;5525;42.648;23.368;2023-12-20T13:43:04;56.50;;;30.30;;
10945;SDS011;5525;42.648;23.368;2023-12-20T13:45:31;51.90;;;30.17;;
10945;SDS011;5525;42.648;23.368;2023-12-20T13:47:58;52.72;;;30.30;;
10945;SDS011;5525;42.648;23.368;2023-12-20T13:50:25;56.90;;;31.33;;
10945;SDS011;5525;42.648;23.368;2023-12-20T13:52:52;56.67;;;31.77;;
10945;SDS011;5525;42.648;23.368;2023-12-20T13:55:19;52.20;;;29.42;;
10945;SDS011;5525;42.648;23.368;2023-12-20T13:57:52;51.20;;;29.08;;
10945;SDS011;5525;42.648;23.368;2023-12-20T14:00:18;52.20;;;29.15;;
10945;SDS011;5525;42.648;23.368;2023-12-20T14:02:45;74.72;;;35.30;;
10945;SDS011;5525;42.648;23.368;2023-12-20T14:05:13;73.55;;;37.72;;
10945;SDS011;5525;42.648;23.368;2023-12-20T14:07:42;70.95;;;35.58;;
10945;SDS011;5525;42.648;23.368;2023-12-20T14:10:11;72.35;;;35.92;;
10945;SDS011;5525;42.648;23.368;2023-12-20T14:12:38;80.65;;;37.38;;
10945;SDS011;5525;42.648;23.368;2023-12-20T14:15:07;72.93;;;35.33;;
10945;SDS011;5525;42.648;23.368;2023-12-20T14:17:36;70.90;;;36.63;;
10945;SDS011;5525;42.648;23.368;2023-12-20T14:20:03;79.70;;;36.60;;
10945;SDS011;5525;42.648;23.368;2023-12-20T14:22:31;84.07;;;38.70;;